Aeroporto :
LOGIN :

Iscrizione | Disclaimer

   EN    FR    IT 

 










Sommario :    VFR   VFR Marginale   IFR   IFR Intensivo   IFR Molto Intensivo
Visibilità : 
Base nubi : 
>= 8 km
>= 3000ft
5 / 8 km
1000 / 3000 ft
1500m / 5 km
500 / 1000 ft
800 / 1500m
200 / 500 ft
< 800m
< 200 ft
Simboli :   Temporali  Nebbia  Neve Forte  Precipitazioni Forti  Vento > 20 kt
SIGMETs :   Varie  Temporali  Ghiacco  Turbolenza  Onda orograficha  Ceneri Vulcaniche







- Altitudine del aeroporto : 83 ft
- Codice IATA : LHR
- Carte del aeroporto


EGLL - London Heathrow

ULTIMO METAR :
  • 232020Z AUTO 22008KT 9999 NCD 18/04 Q1015

METARs OBSOLETI :
  • 231950Z AUTO 22009KT 9999 NCD 19/03 Q1015 NOSIG
  • 231920Z AUTO 22008KT 9999 NCD 20/02 Q1015
  • 231850Z AUTO 22010KT 9999 NCD 20/02 Q1014
  • 231820Z AUTO 22009KT 190V250 9999 NCD 21/02 Q1014
  • 231750Z AUTO 22010KT 9999 NCD 21/03 Q1014

TAF TAF EGLL
Valido dal 23 a 18 ore il 25 a 00 ore UTC


231703Z 2318/2424 22010KT CAVOK
BECMG 2403/2406 30008KT
PROB30
TEMPO 2415/2422 8000 -SHRA
Nessun NOTAM noto per questo aeroporto.



MetMap, La meteo Aeronautica in un colpo d'occhio ! - Copyright ORBIFLY Dicembre 2007 - Disclaimer

ORBIFLY MET'MAP TEAM :

Programmazione e sviluppo : Alexandra Zaïnal
Concezione e sviluppo : Baudouin d'Aumeries
Co-Programmazione e sviluppo : Marc-Olivier Méhu
Supporto tecnico e logistico : Manuel Goepfert
Aiuto per la traduzione : Arnaldo La Scala

Contatto : metmap@orbifly.com




FONTI E CREDITI :

   NOAA